Time;durP1;ratioP1;P1;durP2;ratioP2;P2;SDS_P1;SDS_P2;PMS_P1;PMS_P2;Temp;Humidity;BMP_temperature;BMP_pressure;BME280_temperature;BME280_humidity;BME280_pressure;Samples;Min_cycle;Max_cycle;Signal;HPM_P1;HPM_P2
2023/06/17 00:00:20;;;;;;;3.63;3.33;;;16.40;64.60;;;;;;5113017;27;21194;-72
2023/06/17 00:02:47;;;;;;;3.90;3.33;;;16.40;64.10;;;;;;5110205;27;20633;-72
2023/06/17 00:05:15;;;;;;;4.20;3.80;;;16.40;64.20;;;;;;5114359;27;20736;-72
2023/06/17 00:07:44;;;;;;;3.10;2.80;;;16.40;63.30;;;;;;5117122;27;20627;-72
2023/06/17 00:10:14;;;;;;;6.53;3.40;;;16.40;63.80;;;;;;5115846;27;20623;-72
2023/06/17 00:12:43;;;;;;;4.33;3.20;;;16.40;63.60;;;;;;5114155;27;20928;-71
2023/06/17 00:15:12;;;;;;;2.90;2.60;;;16.40;63.40;;;;;;5113800;27;20912;-72
2023/06/17 00:17:44;;;;;;;4.00;3.60;;;16.30;63.70;;;;;;5110833;27;20623;-72
2023/06/17 00:20:12;;;;;;;5.13;3.90;;;16.20;65.60;;;;;;5108872;27;20637;-72
2023/06/17 00:22:40;;;;;;;4.80;3.40;;;16.20;64.90;;;;;;5120179;27;20612;-72
2023/06/17 00:25:07;;;;;;;4.97;2.93;;;16.20;65.80;;;;;;5111875;27;21235;-72
2023/06/17 00:27:36;;;;;;;4.40;3.70;;;16.10;65.20;;;;;;5111869;27;20623;-72
2023/06/17 00:30:02;;;;;;;3.70;3.40;;;16.10;64.80;;;;;;5119502;27;20621;-72
2023/06/17 00:32:30;;;;;;;4.73;3.67;;;16.10;64.60;;;;;;5110696;27;21046;-72
2023/06/17 00:34:57;;;;;;;4.43;3.40;;;16.20;64.60;;;;;;5117123;27;21196;-72
2023/06/17 00:37:24;;;;;;;3.77;3.20;;;16.20;64.60;;;;;;5112206;27;20749;-73
2023/06/17 00:39:51;;;;;;;4.20;3.80;;;16.10;64.30;;;;;;5112871;27;20685;-72
2023/06/17 00:42:18;;;;;;;3.40;3.10;;;16.10;64.40;;;;;;5105088;27;20649;-72
2023/06/17 00:44:46;;;;;;;4.30;3.27;;;16.00;64.20;;;;;;5121803;27;21227;-72
2023/06/17 00:47:14;;;;;;;3.80;3.27;;;16.00;65.30;;;;;;5113908;27;20669;-72
2023/06/17 00:49:42;;;;;;;3.33;2.70;;;16.00;64.20;;;;;;5109118;27;20619;-73
2023/06/17 00:52:10;;;;;;;3.70;3.00;;;16.00;64.20;;;;;;5118053;27;20689;-72
2023/06/17 00:54:39;;;;;;;3.30;3.00;;;15.90;64.20;;;;;;5119158;27;20716;-72
2023/06/17 00:57:09;;;;;;;3.53;2.73;;;15.80;66.50;;;;;;5116232;27;20641;-72
2023/06/17 00:59:38;;;;;;;3.47;3.17;;;15.80;66.80;;;;;;5119779;27;21549;-73
2023/06/17 01:02:09;;;;;;;3.90;2.90;;;15.70;67.00;;;;;;5119971;27;20667;-73
2023/06/17 01:04:37;;;;;;;4.03;3.63;;;15.80;66.90;;;;;;5123635;27;20627;-72
2023/06/17 01:07:16;;;;;;;3.40;2.83;;;15.70;66.50;;;;;;5116802;27;20705;-72
2023/06/17 01:09:55;;;;;;;4.07;3.37;;;15.70;66.10;;;;;;5111558;27;21225;-72
2023/06/17 01:12:25;;;;;;;5.40;3.17;;;15.70;65.60;;;;;;5117297;27;21005;-73
2023/06/17 01:14:55;;;;;;;4.20;3.10;;;15.70;65.00;;;;;;5109825;27;20666;-72
2023/06/17 01:17:25;;;;;;;4.13;3.57;;;15.70;65.40;;;;;;5107989;27;20694;-73
2023/06/17 01:19:54;;;;;;;3.33;3.03;;;15.60;65.70;;;;;;5108423;27;20665;-72
2023/06/17 01:22:22;;;;;;;3.27;2.70;;;15.50;65.60;;;;;;5113092;27;20653;-72
2023/06/17 01:24:52;;;;;;;3.83;2.63;;;15.50;66.00;;;;;;5120134;27;20659;-72
2023/06/17 01:27:23;;;;;;;4.07;3.10;;;15.50;66.90;;;;;;5100310;27;20657;-72
2023/06/17 01:29:50;;;;;;;5.60;3.53;;;15.40;66.30;;;;;;5106352;27;20623;-73
2023/06/17 01:32:17;;;;;;;4.10;3.47;;;15.50;65.70;;;;;;5120100;27;20702;-73
2023/06/17 01:34:55;;;;;;;3.20;2.90;;;15.50;66.30;;;;;;5118733;27;20636;-72
2023/06/17 01:37:30;;;;;;;5.10;3.17;;;15.60;66.30;;;;;;5114041;27;20759;-73
2023/06/17 01:40:02;;;;;;;2.47;2.27;;;15.50;66.40;;;;;;5114963;27;20675;-72
2023/06/17 01:42:32;;;;;;;3.80;3.50;;;15.40;66.60;;;;;;5112515;27;20615;-72
2023/06/17 01:45:03;;;;;;;3.30;3.00;;;15.40;67.80;;;;;;5111982;27;20629;-72
2023/06/17 01:47:31;;;;;;;3.67;3.30;;;15.30;67.90;;;;;;5120308;27;20977;-72
2023/06/17 01:50:01;;;;;;;3.53;3.13;;;15.30;68.70;;;;;;5103103;27;20696;-72
2023/06/17 01:52:28;;;;;;;4.30;3.77;;;15.30;68.80;;;;;;5112135;27;20648;-72
2023/06/17 01:54:55;;;;;;;2.77;2.57;;;15.30;68.30;;;;;;5102441;27;20635;-72
2023/06/17 01:57:25;;;;;;;4.57;4.17;;;15.30;67.00;;;;;;5112496;27;20658;-73
2023/06/17 01:59:53;;;;;;;3.80;3.17;;;15.40;66.70;;;;;;5107217;27;21021;-72
2023/06/17 02:02:21;;;;;;;3.93;3.00;;;15.30;67.20;;;;;;5119413;27;20658;-72
2023/06/17 02:04:48;;;;;;;3.57;3.27;;;15.30;67.90;;;;;;5116457;27;20627;-72
2023/06/17 02:07:17;;;;;;;3.10;2.50;;;15.20;67.80;;;;;;5100657;28;20685;-72
2023/06/17 02:09:44;;;;;;;5.03;3.53;;;15.20;68.10;;;;;;5118123;27;20628;-72
2023/06/17 02:12:12;;;;;;;3.23;2.93;;;15.20;68.10;;;;;;5108562;27;20747;-73
2023/06/17 02:14:40;;;;;;;4.17;3.50;;;15.10;68.00;;;;;;5117672;27;21009;-72
2023/06/17 02:17:08;;;;;;;3.17;2.93;;;15.10;67.60;;;;;;5110441;27;20637;-72
2023/06/17 02:19:35;;;;;;;3.10;2.77;;;15.10;67.80;;;;;;5115649;27;20645;-72
2023/06/17 02:22:02;;;;;;;3.50;3.20;;;15.10;67.60;;;;;;5111084;27;20693;-73
2023/06/17 02:24:30;;;;;;;4.20;3.53;;;15.10;67.60;;;;;;5118761;27;20717;-72
2023/06/17 02:26:57;;;;;;;3.93;3.50;;;15.10;67.90;;;;;;5119416;27;20653;-72
2023/06/17 02:29:26;;;;;;;4.80;4.30;;;14.90;68.20;;;;;;5112270;27;20985;-72
2023/06/17 02:31:55;;;;;;;3.97;3.37;;;14.90;68.30;;;;;;5115473;27;20708;-73
2023/06/17 02:34:23;;;;;;;4.20;3.23;;;14.90;68.50;;;;;;5117702;27;20627;-72
2023/06/17 02:36:50;;;;;;;3.60;3.20;;;14.90;67.80;;;;;;5116179;27;21250;-72
2023/06/17 02:39:17;;;;;;;3.20;2.67;;;14.90;67.60;;;;;;5119071;27;20670;-72
2023/06/17 02:41:44;;;;;;;4.40;4.00;;;14.90;67.90;;;;;;5116793;27;20652;-72
2023/06/17 02:44:11;;;;;;;4.20;3.80;;;14.90;68.00;;;;;;5113054;27;21051;-73
2023/06/17 02:46:40;;;;;;;5.63;3.50;;;14.80;68.50;;;;;;5101785;28;20713;-73
2023/06/17 02:49:08;;;;;;;3.70;3.30;;;14.80;69.80;;;;;;5113533;27;20623;-72
2023/06/17 02:51:35;;;;;;;4.10;3.70;;;14.70;69.90;;;;;;5102760;27;20695;-73
2023/06/17 02:54:03;;;;;;;5.87;3.73;;;14.60;70.70;;;;;;5113195;27;20621;-72
2023/06/17 02:56:32;;;;;;;6.40;3.80;;;14.60;70.70;;;;;;5106090;28;20654;-72
2023/06/17 02:58:59;;;;;;;3.47;3.17;;;14.60;70.50;;;;;;5114639;28;20759;-72
2023/06/17 03:01:28;;;;;;;5.77;3.90;;;14.60;70.10;;;;;;5111480;27;20660;-72
2023/06/17 03:03:55;;;;;;;4.20;3.67;;;14.60;70.80;;;;;;5109733;28;21202;-73
2023/06/17 03:06:25;;;;;;;4.27;3.10;;;14.50;71.10;;;;;;5096851;28;20664;-72
2023/06/17 03:08:53;;;;;;;3.67;3.23;;;14.50;71.90;;;;;;5118929;28;21324;-72
2023/06/17 03:11:21;;;;;;;3.67;2.80;;;14.50;72.10;;;;;;5101067;28;20656;-72
2023/06/17 03:13:48;;;;;;;4.50;3.23;;;14.50;72.30;;;;;;5119390;27;20730;-72
2023/06/17 03:16:17;;;;;;;3.33;3.03;;;14.40;72.50;;;;;;5119300;28;20653;-73
2023/06/17 03:18:44;;;;;;;4.00;3.57;;;14.40;72.30;;;;;;5108305;28;20622;-72
2023/06/17 03:21:11;;;;;;;3.90;3.60;;;14.50;72.10;;;;;;5108298;28;20649;-72
2023/06/17 03:23:40;;;;;;;4.83;3.60;;;14.60;71.10;;;;;;5113614;28;20625;-73
2023/06/17 03:26:09;;;;;;;3.93;3.60;;;14.70;71.00;;;;;;5121707;27;20650;-73
2023/06/17 03:28:36;;;;;;;3.60;3.30;;;14.80;70.70;;;;;;5116261;27;20958;-72
2023/06/17 03:31:03;;;;;;;7.97;3.43;;;14.90;69.10;;;;;;5115386;27;21093;-72
2023/06/17 03:33:30;;;;;;;4.77;3.67;;;15.00;67.90;;;;;;5123325;27;20653;-72
2023/06/17 03:35:57;;;;;;;3.30;3.00;;;15.00;68.80;;;;;;5125518;27;20644;-72
2023/06/17 03:38:24;;;;;;;3.77;3.40;;;14.90;69.10;;;;;;5117513;27;20619;-72
2023/06/17 03:40:52;;;;;;;4.47;3.50;;;14.90;69.70;;;;;;5119157;27;20692;-73
2023/06/17 03:43:19;;;;;;;3.47;3.17;;;14.80;69.10;;;;;;5117755;27;20620;-72
2023/06/17 03:45:45;;;;;;;4.37;3.37;;;14.80;70.00;;;;;;5113289;27;20660;-72
2023/06/17 03:48:12;;;;;;;4.23;3.10;;;14.80;69.80;;;;;;5122707;27;20619;-73
2023/06/17 03:50:39;;;;;;;4.43;3.73;;;14.70;70.40;;;;;;5121470;27;20685;-72
2023/06/17 03:53:08;;;;;;;4.27;3.60;;;14.70;70.60;;;;;;5115168;27;20626;-72
2023/06/17 03:55:36;;;;;;;4.27;3.87;;;14.70;70.50;;;;;;5124879;27;20701;-71
2023/06/17 03:58:04;;;;;;;7.10;3.83;;;14.60;71.40;;;;;;5116942;27;20969;-72
2023/06/17 04:00:31;;;;;;;5.93;2.90;;;14.70;70.80;;;;;;5118194;27;20695;-73
2023/06/17 04:02:57;;;;;;;3.57;3.33;;;14.80;70.40;;;;;;5120613;27;20628;-72
2023/06/17 04:05:31;;;;;;;3.97;3.57;;;14.80;70.50;;;;;;5114011;27;20771;-72
2023/06/17 04:07:59;;;;;;;4.20;3.80;;;14.90;70.60;;;;;;5119499;27;20963;-73
2023/06/17 04:10:26;;;;;;;5.80;3.57;;;15.00;69.80;;;;;;5119732;27;20652;-73
2023/06/17 04:12:53;;;;;;;4.60;3.97;;;15.00;69.50;;;;;;5114561;27;20628;-73
2023/06/17 04:15:21;;;;;;;3.80;3.40;;;15.00;70.10;;;;;;5116853;27;20631;-72
2023/06/17 04:17:48;;;;;;;4.00;3.47;;;15.10;71.10;;;;;;5120929;27;20677;-72
2023/06/17 04:20:15;;;;;;;4.93;4.03;;;15.10;69.80;;;;;;5114544;27;21240;-72
2023/06/17 04:22:43;;;;;;;3.20;3.00;;;15.30;68.90;;;;;;5113899;27;20636;-72
2023/06/17 04:25:12;;;;;;;4.57;3.67;;;15.30;68.80;;;;;;5105796;27;20626;-72
2023/06/17 04:27:39;;;;;;;4.80;3.57;;;15.30;68.20;;;;;;5112580;27;20629;-72
2023/06/17 04:30:09;;;;;;;4.10;3.70;;;15.30;68.90;;;;;;5119470;27;20624;-72
2023/06/17 04:32:38;;;;;;;4.10;3.27;;;15.20;68.90;;;;;;5113663;27;21025;-72
2023/06/17 04:35:06;;;;;;;4.50;4.10;;;15.20;69.20;;;;;;5121218;27;20724;-73
2023/06/17 04:37:34;;;;;;;4.13;3.73;;;15.20;68.90;;;;;;5111300;27;20630;-72
2023/06/17 04:40:06;;;;;;;3.77;3.40;;;15.30;68.80;;;;;;5117232;27;20681;-72
2023/06/17 04:42:34;;;;;;;3.67;3.37;;;15.40;68.80;;;;;;5114615;27;20704;-72
2023/06/17 04:45:01;;;;;;;4.53;3.67;;;15.40;68.70;;;;;;5120994;27;20627;-73
2023/06/17 04:47:29;;;;;;;4.50;3.37;;;15.40;68.70;;;;;;5111888;27;20672;-72
2023/06/17 04:49:57;;;;;;;5.80;3.60;;;15.50;68.70;;;;;;5098665;27;20616;-73
2023/06/17 04:52:25;;;;;;;5.20;4.00;;;15.50;68.70;;;;;;5124695;27;21261;-72
2023/06/17 04:54:52;;;;;;;3.60;3.30;;;15.50;69.20;;;;;;5123065;27;20620;-72
2023/06/17 04:57:19;;;;;;;5.20;4.10;;;15.50;69.10;;;;;;5108060;27;21174;-73
2023/06/17 04:59:46;;;;;;;3.83;3.33;;;15.50;70.20;;;;;;5097517;27;20660;-72
2023/06/17 05:02:13;;;;;;;5.93;4.10;;;15.60;70.00;;;;;;5102360;27;20645;-72
2023/06/17 05:04:40;;;;;;;5.60;4.40;;;15.70;69.00;;;;;;5104857;27;20613;-72
2023/06/17 05:07:08;;;;;;;10.87;4.47;;;15.70;68.40;;;;;;5113511;27;20678;-72
2023/06/17 05:09:35;;;;;;;6.30;4.33;;;15.80;68.60;;;;;;5103644;27;20739;-72
2023/06/17 05:12:01;;;;;;;3.60;3.30;;;15.80;69.40;;;;;;5111588;27;20679;-72
2023/06/17 05:14:28;;;;;;;6.20;3.60;;;16.00;68.70;;;;;;5113494;27;20669;-72
2023/06/17 05:16:55;;;;;;;9.00;4.93;;;16.00;68.30;;;;;;5090824;27;20652;-72
2023/06/17 05:19:22;;;;;;;4.27;3.97;;;16.10;68.10;;;;;;5112217;27;21196;-73
2023/06/17 05:21:48;;;;;;;4.20;3.90;;;16.10;67.60;;;;;;5120471;27;20665;-73
2023/06/17 05:24:17;;;;;;;4.33;3.77;;;16.10;67.60;;;;;;5108127;27;20625;-73
2023/06/17 05:26:43;;;;;;;4.93;4.33;;;16.20;67.90;;;;;;5104249;27;20656;-72
2023/06/17 05:29:10;;;;;;;4.13;3.37;;;16.30;67.70;;;;;;5109109;27;20628;-72
2023/06/17 05:31:37;;;;;;;8.63;3.43;;;16.40;67.90;;;;;;5103867;27;20666;-73
2023/06/17 05:34:04;;;;;;;4.23;3.60;;;16.40;68.20;;;;;;5118170;27;20656;-72
2023/06/17 05:36:30;;;;;;;3.77;3.37;;;16.50;67.30;;;;;;5103685;27;20650;-72
2023/06/17 05:38:57;;;;;;;3.90;3.50;;;16.60;67.50;;;;;;5117291;27;21193;-72
2023/06/17 05:41:26;;;;;;;4.17;3.50;;;16.70;67.80;;;;;;5106233;27;20673;-73
2023/06/17 05:43:53;;;;;;;4.30;3.90;;;16.80;68.00;;;;;;5116329;27;20725;-72
2023/06/17 05:46:20;;;;;;;5.77;3.47;;;16.90;66.20;;;;;;5115040;27;20661;-77
2023/06/17 05:48:46;;;;;;;6.17;3.90;;;17.00;65.20;;;;;;5111866;27;20629;-76
2023/06/17 05:51:13;;;;;;;3.90;3.50;;;17.10;65.20;;;;;;5116798;27;20647;-76
2023/06/17 05:53:40;;;;;;;5.03;3.67;;;17.20;64.30;;;;;;5116865;27;20640;-77
2023/06/17 05:56:09;;;;;;;5.40;4.40;;;17.10;63.30;;;;;;5113680;27;20646;-76
2023/06/17 05:58:38;;;;;;;4.50;4.00;;;17.30;63.80;;;;;;5109816;27;20643;-76
2023/06/17 06:01:05;;;;;;;4.27;3.73;;;17.50;63.50;;;;;;5114283;27;20680;-77
2023/06/17 06:03:32;;;;;;;5.93;4.93;;;17.60;63.20;;;;;;5117387;27;20630;-77
2023/06/17 06:05:59;;;;;;;4.03;3.73;;;17.70;62.10;;;;;;5112236;27;20649;-77
2023/06/17 06:08:26;;;;;;;4.80;4.40;;;17.80;62.80;;;;;;5108610;27;20991;-75
2023/06/17 06:10:53;;;;;;;3.97;3.67;;;17.90;63.50;;;;;;5110413;27;21246;-73
2023/06/17 06:13:20;;;;;;;4.73;4.23;;;17.80;62.20;;;;;;5104732;27;20636;-73
2023/06/17 06:15:48;;;;;;;4.20;3.80;;;17.80;61.80;;;;;;5111406;27;21145;-74
2023/06/17 06:18:15;;;;;;;4.63;4.23;;;17.90;62.50;;;;;;5115944;27;20630;-73
2023/06/17 06:20:42;;;;;;;3.60;3.30;;;18.10;61.50;;;;;;5108400;27;21299;-72
2023/06/17 06:23:09;;;;;;;5.20;3.77;;;18.20;61.50;;;;;;5120693;27;21038;-74
2023/06/17 06:25:37;;;;;;;5.00;4.23;;;18.40;61.00;;;;;;5114501;27;20955;-74
2023/06/17 06:28:04;;;;;;;4.63;4.20;;;18.60;60.00;;;;;;5120263;27;20952;-74
2023/06/17 06:30:31;;;;;;;4.43;4.03;;;18.70;59.70;;;;;;5117994;27;20655;-75
2023/06/17 06:32:59;;;;;;;4.00;3.60;;;18.80;59.30;;;;;;5103296;27;20754;-75
2023/06/17 06:35:26;;;;;;;4.97;4.47;;;18.90;58.70;;;;;;5118328;27;20972;-75
2023/06/17 06:37:53;;;;;;;4.50;4.10;;;18.90;59.00;;;;;;5113981;27;20629;-75
2023/06/17 06:40:20;;;;;;;4.70;4.10;;;19.00;59.20;;;;;;5112477;27;20662;-75
2023/06/17 06:42:47;;;;;;;4.60;4.10;;;19.00;58.80;;;;;;5113945;27;21283;-75
2023/06/17 06:45:14;;;;;;;3.03;2.70;;;19.20;59.00;;;;;;5116518;27;20666;-75
2023/06/17 06:47:40;;;;;;;4.47;4.10;;;19.30;58.60;;;;;;5107201;27;20616;-75
2023/06/17 06:50:09;;;;;;;4.43;3.50;;;19.50;58.60;;;;;;5109606;27;20631;-74
2023/06/17 06:52:36;;;;;;;4.40;4.00;;;19.50;58.10;;;;;;5115781;27;20672;-75
2023/06/17 06:55:03;;;;;;;4.47;4.07;;;19.40;57.90;;;;;;5118599;27;20681;-74
2023/06/17 06:57:30;;;;;;;4.33;3.93;;;19.60;58.10;;;;;;5099738;28;20620;-74
2023/06/17 06:59:57;;;;;;;4.27;3.80;;;19.70;58.50;;;;;;5112558;28;21075;-74
2023/06/17 07:02:24;;;;;;;5.37;4.87;;;19.70;58.60;;;;;;5114582;27;20648;-72
2023/06/17 07:04:51;;;;;;;4.00;3.50;;;19.80;59.20;;;;;;5116482;27;20631;-73
2023/06/17 07:07:20;;;;;;;3.73;3.43;;;20.00;57.50;;;;;;5120658;27;21140;-72
2023/06/17 07:09:46;;;;;;;5.03;4.30;;;20.20;57.20;;;;;;5114251;27;20627;-72
2023/06/17 07:12:13;;;;;;;5.23;4.70;;;20.40;57.00;;;;;;5119837;27;20657;-73
2023/06/17 07:14:40;;;;;;;4.00;3.70;;;20.50;57.00;;;;;;5120336;27;20629;-72
2023/06/17 07:17:07;;;;;;;4.67;4.17;;;20.50;56.90;;;;;;5123150;27;21045;-72
2023/06/17 07:19:34;;;;;;;5.13;3.40;;;20.70;56.80;;;;;;5122144;27;21210;-72
2023/06/17 07:22:00;;;;;;;5.10;4.70;;;20.90;56.90;;;;;;5122726;27;20676;-72
2023/06/17 07:24:28;;;;;;;4.90;4.40;;;21.00;56.00;;;;;;5120701;27;20728;-72
2023/06/17 07:26:55;;;;;;;4.40;3.83;;;21.10;56.00;;;;;;5122880;27;21250;-73
2023/06/17 07:29:22;;;;;;;4.83;3.40;;;21.30;54.90;;;;;;5119563;27;20635;-73
2023/06/17 07:31:49;;;;;;;4.40;4.00;;;21.40;54.80;;;;;;5117862;27;20675;-73
2023/06/17 07:34:16;;;;;;;4.00;3.70;;;21.40;53.80;;;;;;5116230;27;20623;-72
2023/06/17 07:36:42;;;;;;;5.30;4.63;;;21.50;55.00;;;;;;5119688;27;21004;-72
2023/06/17 07:39:09;;;;;;;8.47;4.90;;;21.60;55.20;;;;;;5118375;27;20617;-73
2023/06/17 07:41:37;;;;;;;5.03;4.43;;;21.80;53.40;;;;;;5107183;27;20702;-74
2023/06/17 07:44:05;;;;;;;5.20;4.80;;;22.00;53.20;;;;;;5122002;27;21078;-75
2023/06/17 07:46:32;;;;;;;5.57;5.10;;;22.00;53.80;;;;;;5113752;27;20650;-75
2023/06/17 07:48:59;;;;;;;4.90;4.00;;;22.20;53.90;;;;;;5121687;27;20971;-74
2023/06/17 07:51:25;;;;;;;4.07;3.70;;;22.40;52.90;;;;;;5128216;27;21322;-75
2023/06/17 07:53:52;;;;;;;4.00;3.70;;;22.60;53.30;;;;;;5121468;27;20755;-76
2023/06/17 07:56:20;;;;;;;4.77;4.10;;;22.50;52.80;;;;;;5119289;27;20647;-74
2023/06/17 07:58:49;;;;;;;3.80;3.50;;;22.60;52.70;;;;;;5117578;27;20625;-74
2023/06/17 08:01:16;;;;;;;4.28;3.97;;;22.70;51.40;;;;;;5123405;27;20757;-75
2023/06/17 08:03:43;;;;;;;4.87;4.47;;;22.70;51.00;;;;;;5125182;27;20295;-75
2023/06/17 08:06:13;;;;;;;4.70;4.07;;;22.80;51.40;;;;;;5118111;27;20646;-75
2023/06/17 08:08:40;;;;;;;4.85;4.45;;;23.10;50.10;;;;;;5111732;27;20845;-75
2023/06/17 08:11:07;;;;;;;3.50;3.20;;;23.30;50.00;;;;;;5118471;27;20293;-75
2023/06/17 08:13:34;;;;;;;8.03;4.60;;;23.30;49.40;;;;;;5116185;27;20620;-75
2023/06/17 08:16:02;;;;;;;4.40;4.00;;;23.70;50.00;;;;;;5121208;27;20661;-75
2023/06/17 08:18:29;;;;;;;4.20;3.80;;;23.80;50.10;;;;;;5116798;27;20620;-75
2023/06/17 08:20:56;;;;;;;3.83;3.53;;;23.60;49.10;;;;;;5118625;27;21578;-75
2023/06/17 08:23:23;;;;;;;4.00;3.60;;;23.80;48.60;;;;;;5112931;27;20636;-75
2023/06/17 08:25:50;;;;;;;3.77;3.47;;;23.90;49.70;;;;;;5114580;27;20656;-75
2023/06/17 08:28:16;;;;;;;4.57;4.00;;;23.90;49.60;;;;;;5119697;27;20622;-75
2023/06/17 08:30:43;;;;;;;3.80;3.40;;;23.80;47.10;;;;;;5119074;27;20655;-75
2023/06/17 08:33:11;;;;;;;5.10;3.80;;;23.80;46.80;;;;;;5108877;27;20829;-75
2023/06/17 08:35:38;;;;;;;3.63;3.33;;;23.80;46.00;;;;;;5102941;27;20224;-75
2023/06/17 08:38:05;;;;;;;4.37;3.97;;;23.90;47.50;;;;;;5118152;27;21154;-75
2023/06/17 08:40:33;;;;;;;5.03;4.57;;;24.00;46.50;;;;;;5112527;27;20669;-75
2023/06/17 08:43:02;;;;;;;3.87;3.53;;;24.20;46.40;;;;;;5107962;27;20632;-73
2023/06/17 08:45:29;;;;;;;4.03;3.47;;;24.30;47.10;;;;;;5121330;27;20650;-72
2023/06/17 08:47:56;;;;;;;4.10;3.77;;;24.20;47.60;;;;;;5114080;27;20634;-72
2023/06/17 08:50:27;;;;;;;4.23;3.80;;;24.10;47.60;;;;;;5117963;27;20621;-72
2023/06/17 08:52:54;;;;;;;4.77;3.30;;;23.80;47.00;;;;;;5115065;27;20634;-72
2023/06/17 08:55:21;;;;;;;5.03;4.10;;;23.80;47.30;;;;;;5115784;27;20748;-72
2023/06/17 08:57:50;;;;;;;4.17;3.87;;;23.70;47.80;;;;;;5119674;27;20637;-71
2023/06/17 09:00:17;;;;;;;4.50;4.03;;;23.60;48.10;;;;;;5118740;27;21095;-72
2023/06/17 09:02:45;;;;;;;5.10;4.60;;;23.90;48.90;;;;;;5115544;27;20771;-71
2023/06/17 09:05:12;;;;;;;4.67;4.27;;;24.20;49.50;;;;;;5118134;27;20194;-72
2023/06/17 09:07:42;;;;;;;5.77;4.70;;;24.70;48.40;;;;;;5108979;27;20621;-72
2023/06/17 09:10:09;;;;;;;4.27;3.97;;;25.10;46.90;;;;;;5110013;27;20632;-71
2023/06/17 09:12:38;;;;;;;4.37;4.07;;;25.30;47.10;;;;;;5115808;27;21207;-71
2023/06/17 09:15:07;;;;;;;5.73;4.13;;;25.30;48.10;;;;;;5121125;27;21179;-71
2023/06/17 09:17:34;;;;;;;3.80;3.30;;;25.40;47.40;;;;;;5109484;27;20632;-72
2023/06/17 09:20:11;;;;;;;4.43;4.03;;;25.60;48.70;;;;;;5110290;27;20636;-71
2023/06/17 09:22:44;;;;;;;5.00;4.50;;;25.80;47.80;;;;;;5115998;27;20661;-72
2023/06/17 09:25:13;;;;;;;4.73;4.23;;;26.10;48.50;;;;;;5101365;27;21039;-71
2023/06/17 09:27:46;;;;;;;4.00;3.70;;;25.90;45.70;;;;;;5111815;27;20629;-72
2023/06/17 09:30:14;;;;;;;11.50;3.83;;;25.50;46.60;;;;;;5111747;27;20646;-71
2023/06/17 09:32:43;;;;;;;4.03;3.73;;;24.90;46.80;;;;;;5119367;27;20627;-71
2023/06/17 09:35:14;;;;;;;4.07;3.77;;;24.40;47.50;;;;;;5108458;27;20639;-71
2023/06/17 09:37:43;;;;;;;4.13;3.73;;;24.20;48.00;;;;;;5107134;27;21028;-72
2023/06/17 09:40:11;;;;;;;3.70;3.40;;;24.10;48.60;;;;;;5105927;27;20715;-72
2023/06/17 09:42:38;;;;;;;4.30;3.90;;;24.50;48.60;;;;;;5102078;27;20693;-71
2023/06/17 09:45:11;;;;;;;4.70;3.90;;;24.90;46.00;;;;;;5121201;27;20979;-71
2023/06/17 09:47:38;;;;;;;4.73;4.20;;;25.30;45.00;;;;;;5117160;27;20646;-71
2023/06/17 09:50:08;;;;;;;3.17;2.87;;;25.70;45.30;;;;;;5109912;27;21271;-71
2023/06/17 09:52:37;;;;;;;6.60;4.07;;;26.00;44.00;;;;;;5121032;27;20616;-72
2023/06/17 09:55:06;;;;;;;3.30;3.10;;;25.80;42.20;;;;;;5112057;27;20636;-71
2023/06/17 09:57:34;;;;;;;3.97;3.37;;;25.80;42.70;;;;;;5115291;27;20627;-71
2023/06/17 10:00:09;;;;;;;2.07;1.90;;;26.10;42.90;;;;;;5104066;27;21013;-71
2023/06/17 10:02:37;;;;;;;3.37;3.17;;;26.10;42.60;;;;;;5113721;27;20651;-72
2023/06/17 10:05:04;;;;;;;4.10;3.40;;;26.40;42.90;;;;;;5109932;27;20641;-75
2023/06/17 10:07:32;;;;;;;3.40;3.10;;;25.90;41.00;;;;;;5118219;27;20615;-75
2023/06/17 10:10:00;;;;;;;3.47;3.27;;;25.50;42.70;;;;;;5113382;27;20636;-75
2023/06/17 10:12:30;;;;;;;3.80;3.50;;;25.70;43.70;;;;;;5106282;27;20656;-75
2023/06/17 10:14:59;;;;;;;3.93;3.53;;;25.90;42.50;;;;;;5114757;27;21116;-75
2023/06/17 10:17:26;;;;;;;2.97;2.73;;;25.70;44.30;;;;;;5116143;27;20667;-75
2023/06/17 10:19:54;;;;;;;3.60;3.30;;;25.70;43.50;;;;;;5115827;27;20635;-74
2023/06/17 10:22:23;;;;;;;3.47;3.27;;;26.10;41.90;;;;;;5112239;27;20670;-75
2023/06/17 10:24:50;;;;;;;3.70;3.40;;;26.60;44.80;;;;;;5116546;27;21066;-75
2023/06/17 10:27:20;;;;;;;3.63;3.37;;;26.80;44.10;;;;;;5115120;27;21235;-74
2023/06/17 10:29:50;;;;;;;4.10;3.43;;;26.90;42.60;;;;;;5117036;27;21200;-74
2023/06/17 10:32:22;;;;;;;3.63;3.30;;;26.80;43.00;;;;;;5112125;27;20647;-74
2023/06/17 10:35:09;;;;;;;4.10;3.40;;;27.10;41.60;;;;;;5115857;27;20649;-75
2023/06/17 10:37:41;;;;;;;3.50;3.20;;;27.30;41.80;;;;;;5113437;27;21184;-74
2023/06/17 10:40:22;;;;;;;4.30;3.90;;;26.80;41.70;;;;;;5106490;27;20629;-76
2023/06/17 10:42:58;;;;;;;3.57;3.27;;;26.60;42.40;;;;;;5110640;27;20760;-73
2023/06/17 10:45:30;;;;;;;3.70;3.40;;;26.10;42.20;;;;;;5109477;27;20640;-73
2023/06/17 10:48:15;;;;;;;4.40;4.00;;;26.00;43.00;;;;;;5107670;27;20742;-73
2023/06/17 10:50:42;;;;;;;3.30;3.10;;;26.40;43.70;;;;;;5113102;27;20653;-72
2023/06/17 10:53:10;;;;;;;4.10;3.70;;;27.00;41.10;;;;;;5101763;27;20730;-73
2023/06/17 10:55:36;;;;;;;3.30;3.07;;;27.40;41.90;;;;;;5119572;27;20663;-73
2023/06/17 10:58:03;;;;;;;3.10;2.80;;;27.50;40.50;;;;;;5111559;28;20732;-72
2023/06/17 11:00:31;;;;;;;5.40;3.60;;;27.50;41.30;;;;;;5112231;28;20654;-72
2023/06/17 11:02:58;;;;;;;3.07;2.87;;;27.60;40.10;;;;;;5108255;28;21258;-72
2023/06/17 11:05:25;;;;;;;4.17;3.80;;;27.80;39.00;;;;;;5118327;28;20993;-72
2023/06/17 11:07:52;;;;;;;4.20;3.80;;;28.10;40.30;;;;;;5113692;28;20694;-72
2023/06/17 11:10:25;;;;;;;3.70;3.40;;;28.50;40.20;;;;;;5097583;28;20627;-72
2023/06/17 11:12:53;;;;;;;3.73;3.40;;;29.00;38.10;;;;;;5108836;28;20623;-72
2023/06/17 11:15:21;;;;;;;3.70;3.40;;;29.10;37.80;;;;;;5097529;28;21075;-72
2023/06/17 11:17:59;;;;;;;2.80;2.60;;;28.40;38.80;;;;;;5101366;28;20978;-74
2023/06/17 11:20:26;;;;;;;3.67;3.37;;;27.50;38.60;;;;;;5115741;28;20651;-74
2023/06/17 11:22:53;;;;;;;3.20;2.90;;;27.20;39.00;;;;;;5116373;28;21116;-73
2023/06/17 11:25:19;;;;;;;3.43;3.13;;;27.10;40.30;;;;;;5119328;27;21217;-73
2023/06/17 11:27:47;;;;;;;3.53;3.23;;;26.90;41.10;;;;;;5107876;28;20722;-73
2023/06/17 11:30:15;;;;;;;2.67;2.47;;;26.90;41.40;;;;;;5105164;28;20632;-74
2023/06/17 11:32:42;;;;;;;3.30;3.00;;;27.50;40.90;;;;;;5111478;27;20659;-74
2023/06/17 11:35:11;;;;;;;3.50;3.20;;;28.00;39.70;;;;;;5113419;28;20627;-73
2023/06/17 11:37:38;;;;;;;3.47;3.17;;;27.70;37.70;;;;;;5112328;28;21106;-74
2023/06/17 11:40:10;;;;;;;3.40;3.10;;;28.00;37.50;;;;;;5113329;28;20623;-74
2023/06/17 11:42:37;;;;;;;3.80;3.30;;;28.50;40.50;;;;;;5096806;28;20691;-74
2023/06/17 11:45:06;;;;;;;7.80;3.17;;;28.20;37.80;;;;;;5117507;28;21029;-72
2023/06/17 11:47:34;;;;;;;3.90;3.60;;;28.00;38.30;;;;;;5115112;27;20626;-72
2023/06/17 11:50:01;;;;;;;3.30;3.10;;;28.90;39.60;;;;;;5120210;27;20626;-72
2023/06/17 11:52:29;;;;;;;3.73;3.43;;;29.50;38.70;;;;;;5122295;27;20643;-72
2023/06/17 11:54:56;;;;;;;2.70;2.50;;;30.30;38.00;;;;;;5122263;27;21266;-73
2023/06/17 11:57:25;;;;;;;3.83;3.53;;;30.50;35.50;;;;;;5108513;27;20650;-72
2023/06/17 11:59:52;;;;;;;3.00;2.70;;;30.50;36.40;;;;;;5117726;27;20680;-72
2023/06/17 12:02:19;;;;;;;3.90;3.60;;;30.00;37.30;;;;;;5127129;27;21237;-72
2023/06/17 12:04:47;;;;;;;3.53;3.23;;;31.10;36.80;;;;;;5120010;27;21287;-73
2023/06/17 12:07:14;;;;;;;3.13;2.90;;;32.50;35.90;;;;;;5118955;27;20753;-72
2023/06/17 12:09:52;;;;;;;3.10;2.90;;;33.20;35.10;;;;;;5103639;27;20628;-72
2023/06/17 12:12:29;;;;;;;3.10;2.90;;;34.20;34.30;;;;;;5100352;27;20708;-72
2023/06/17 12:15:02;;;;;;;3.47;3.00;;;34.30;32.30;;;;;;5122472;27;20931;-71
2023/06/17 12:17:36;;;;;;;3.80;3.50;;;34.10;33.40;;;;;;5110378;27;20639;-73
2023/06/17 12:20:03;;;;;;;2.93;2.73;;;34.70;31.50;;;;;;5120714;27;21250;-74
2023/06/17 12:22:30;;;;;;;3.00;2.70;;;35.70;31.60;;;;;;5109407;27;20732;-73
2023/06/17 12:24:58;;;;;;;3.60;3.30;;;36.00;31.40;;;;;;5113283;27;20976;-73
2023/06/17 12:27:29;;;;;;;3.03;2.83;;;36.50;30.80;;;;;;5121038;27;20353;-73
2023/06/17 12:29:56;;;;;;;3.57;3.27;;;35.30;30.70;;;;;;5117819;27;20552;-74
2023/06/17 12:32:22;;;;;;;3.67;3.43;;;33.70;32.40;;;;;;5112447;27;20657;-74
2023/06/17 12:34:50;;;;;;;3.40;3.10;;;32.90;32.60;;;;;;5114524;27;20659;-73
2023/06/17 12:37:21;;;;;;;3.00;2.80;;;32.30;34.50;;;;;;5115303;27;20879;-73
2023/06/17 12:39:48;;;;;;;3.23;3.03;;;33.50;34.40;;;;;;5119972;27;20713;-73
2023/06/17 12:42:17;;;;;;;3.53;3.23;;;34.00;30.90;;;;;;5111796;27;21001;-73
2023/06/17 12:44:46;;;;;;;3.67;3.37;;;34.40;32.70;;;;;;5114838;27;20941;-73
2023/06/17 12:47:14;;;;;;;2.90;2.70;;;35.50;31.60;;;;;;5112980;27;20642;-73
2023/06/17 12:49:41;;;;;;;3.70;3.40;;;36.10;31.90;;;;;;5108095;27;20655;-73
2023/06/17 12:52:08;;;;;;;3.17;2.97;;;36.10;30.90;;;;;;5124305;27;20658;-73